Time;durP1;ratioP1;P1;durP2;ratioP2;P2;SDS_P1;SDS_P2;PMS_P1;PMS_P2;Temp;Humidity;BMP_temperature;BMP_pressure;BME280_temperature;BME280_humidity;BME280_pressure;Samples;Min_cycle;Max_cycle;Signal;HPM_P1;HPM_P2
2022/12/19 00:02:16;;;;;;;19.43;13.37;;;-0.50;41.00;;;;;;10439943;28;20262;-71
2022/12/19 00:07:21;;;;;;;19.57;13.87;;;-0.50;41.10;;;;;;10441914;28;20229;-71
2022/12/19 00:12:24;;;;;;;20.20;13.63;;;-0.40;41.30;;;;;;10444315;28;20245;-71
2022/12/19 00:17:27;;;;;;;19.00;13.20;;;-0.30;41.40;;;;;;10437917;28;20230;-71
2022/12/19 00:22:32;;;;;;;17.47;12.93;;;-0.20;41.30;;;;;;10435307;28;20228;-71
2022/12/19 00:27:35;;;;;;;22.27;14.63;;;-0.10;41.40;;;;;;10432742;28;20275;-71
2022/12/19 00:32:39;;;;;;;17.50;13.77;;;0.00;41.10;;;;;;10439755;28;20866;-71
2022/12/19 00:37:43;;;;;;;20.30;13.87;;;0.00;40.90;;;;;;10439883;28;20229;-71
2022/12/19 00:42:51;;;;;;;18.07;13.47;;;-0.10;40.90;;;;;;10433349;28;20236;-71
2022/12/19 00:47:55;;;;;;;16.47;12.10;;;-0.10;41.80;;;;;;10431576;28;20221;-71
2022/12/19 00:53:00;;;;;;;17.53;13.37;;;0.00;41.20;;;;;;10439864;28;20240;-71
2022/12/19 00:58:03;;;;;;;18.63;13.50;;;0.00;41.20;;;;;;10437393;28;20221;-71
2022/12/19 01:03:06;;;;;;;17.33;13.53;;;0.10;41.30;;;;;;10418462;28;20225;-71
2022/12/19 01:08:10;;;;;;;19.50;13.90;;;0.10;41.20;;;;;;10389778;28;20229;-71
2022/12/19 01:13:14;;;;;;;20.27;13.97;;;0.20;41.10;;;;;;10394486;28;20609;-71
2022/12/19 01:18:17;;;;;;;18.43;13.50;;;0.30;41.10;;;;;;10397157;28;20226;-71
2022/12/19 01:23:22;;;;;;;20.10;14.00;;;0.20;40.90;;;;;;10394919;28;20300;-71
2022/12/19 01:28:25;;;;;;;17.80;12.63;;;0.30;40.90;;;;;;10392304;28;20230;-71
2022/12/19 01:33:29;;;;;;;18.97;13.80;;;0.30;40.90;;;;;;10397599;28;20569;-70
2022/12/19 01:38:34;;;;;;;19.60;13.67;;;0.30;41.00;;;;;;10387694;28;20245;-71
2022/12/19 01:43:56;;;;;;;17.60;13.10;;;0.30;41.10;;;;;;10394610;28;20234;-71
2022/12/19 01:49:01;;;;;;;20.43;13.93;;;0.30;41.10;;;;;;10392821;28;20225;-71
2022/12/19 01:54:08;;;;;;;15.97;12.27;;;0.40;41.10;;;;;;10392497;28;20221;-71
2022/12/19 01:59:16;;;;;;;18.83;13.80;;;0.40;41.00;;;;;;10394605;28;20230;-70
2022/12/19 02:04:20;;;;;;;20.00;14.23;;;0.40;40.90;;;;;;10385281;28;20238;-70
2022/12/19 02:09:25;;;;;;;18.87;14.23;;;0.50;41.10;;;;;;10389703;28;20237;-71
2022/12/19 02:14:28;;;;;;;19.60;14.13;;;0.50;41.00;;;;;;10401486;28;20218;-70
2022/12/19 02:20:11;;;;;;;20.03;13.93;;;0.50;40.90;;;;;;10394979;28;20230;-70
2022/12/19 02:25:39;;;;;;;19.30;14.07;;;0.50;40.90;;;;;;10430380;28;20221;-71
2022/12/19 02:31:00;;;;;;;19.43;13.97;;;0.50;40.90;;;;;;10431883;28;20236;-70
2022/12/19 02:36:14;;;;;;;18.17;13.77;;;0.50;40.80;;;;;;10430900;28;20772;-70
2022/12/19 02:41:24;;;;;;;19.10;14.40;;;0.50;40.80;;;;;;10430359;28;20234;-70
2022/12/19 02:46:29;;;;;;;16.43;12.80;;;0.60;41.00;;;;;;10436589;28;20229;-70
2022/12/19 02:51:32;;;;;;;19.93;14.50;;;0.60;41.00;;;;;;10429029;28;20232;-70
2022/12/19 02:56:44;;;;;;;20.13;14.40;;;0.60;40.90;;;;;;10426923;28;20221;-70
2022/12/19 03:01:54;;;;;;;19.77;14.43;;;0.60;40.90;;;;;;10428127;28;20641;-70
2022/12/19 03:07:03;;;;;;;21.60;14.80;;;0.70;40.80;;;;;;10435889;28;20701;-70
2022/12/19 03:12:11;;;;;;;17.93;12.47;;;0.70;40.80;;;;;;10429768;28;20240;-71
2022/12/19 03:17:21;;;;;;;17.00;13.00;;;0.70;40.70;;;;;;10428590;28;20271;-71
2022/12/19 03:22:24;;;;;;;19.27;14.27;;;0.70;40.90;;;;;;10431854;28;20604;-70
2022/12/19 03:27:30;;;;;;;22.23;15.03;;;0.70;40.80;;;;;;10429332;28;20276;-70
2022/12/19 03:32:38;;;;;;;21.73;14.77;;;0.70;40.80;;;;;;10429210;28;20800;-70
2022/12/19 03:37:42;;;;;;;20.80;15.67;;;0.70;40.50;;;;;;10429419;28;20229;-70
2022/12/19 03:48:14;;;;;;;23.17;16.60;;;0.70;40.60;;;;;;10435650;28;20710;-70
2022/12/19 03:53:31;;;;;;;23.10;16.60;;;0.60;40.60;;;;;;10426958;28;20709;-70
2022/12/19 03:58:38;;;;;;;22.13;16.37;;;0.50;40.80;;;;;;10426209;28;20647;-70
2022/12/19 04:03:43;;;;;;;20.13;14.80;;;0.50;40.90;;;;;;10428505;28;20233;-70
2022/12/19 04:08:46;;;;;;;20.53;15.57;;;0.50;40.90;;;;;;10431841;28;20312;-70
2022/12/19 04:13:54;;;;;;;21.63;16.13;;;0.50;41.00;;;;;;10426442;28;20244;-70
2022/12/19 04:19:05;;;;;;;23.10;16.43;;;0.50;41.10;;;;;;10427900;28;20238;-70
2022/12/19 04:24:12;;;;;;;23.23;15.73;;;0.50;41.10;;;;;;10427864;28;20685;-70
2022/12/19 04:29:16;;;;;;;23.10;16.03;;;0.40;41.10;;;;;;10431855;28;20221;-70
2022/12/19 04:34:21;;;;;;;23.47;17.17;;;0.40;41.00;;;;;;10427488;28;20225;-71
2022/12/19 04:39:24;;;;;;;27.23;18.43;;;0.40;41.10;;;;;;10426313;28;20295;-70
2022/12/19 04:44:28;;;;;;;27.27;17.73;;;0.30;41.30;;;;;;10439074;28;20284;-70
2022/12/19 04:49:32;;;;;;;23.50;16.67;;;0.30;41.50;;;;;;10437156;28;20233;-70
2022/12/19 04:54:35;;;;;;;25.90;16.67;;;0.30;41.50;;;;;;10437193;28;20291;-70
2022/12/19 04:59:39;;;;;;;23.43;16.43;;;0.40;41.50;;;;;;10439009;28;20710;-70
2022/12/19 05:04:43;;;;;;;23.03;16.70;;;0.40;41.50;;;;;;10437167;28;20228;-70
2022/12/19 05:09:46;;;;;;;23.63;16.70;;;0.40;41.60;;;;;;10434041;28;20229;-70
2022/12/19 05:14:49;;;;;;;24.77;17.17;;;0.50;41.60;;;;;;10427731;28;20229;-70
2022/12/19 05:19:54;;;;;;;25.77;18.20;;;0.50;41.60;;;;;;10429471;28;20232;-70
2022/12/19 05:24:57;;;;;;;25.70;17.90;;;0.50;41.60;;;;;;10432533;28;20282;-70
2022/12/19 05:30:00;;;;;;;23.97;16.40;;;0.50;41.60;;;;;;10430559;28;20739;-70
2022/12/19 05:35:06;;;;;;;24.37;16.53;;;0.40;41.70;;;;;;10430657;28;20695;-70
2022/12/19 05:40:11;;;;;;;23.97;15.37;;;0.40;41.70;;;;;;10427630;28;20733;-70
2022/12/19 05:45:14;;;;;;;21.97;15.83;;;0.50;41.80;;;;;;10428869;28;20743;-70
2022/12/19 05:50:18;;;;;;;25.40;17.77;;;0.50;41.70;;;;;;10428811;28;20229;-70
2022/12/19 05:55:22;;;;;;;27.27;19.13;;;0.50;41.80;;;;;;10423749;28;20230;-70
2022/12/19 06:00:25;;;;;;;21.67;16.60;;;0.60;41.90;;;;;;10427695;28;20615;-70
2022/12/19 06:05:29;;;;;;;26.00;16.50;;;0.60;41.80;;;;;;10425724;28;20244;-70
2022/12/19 06:10:32;;;;;;;24.43;17.43;;;0.70;42.00;;;;;;10420588;28;20229;-71
2022/12/19 06:15:35;;;;;;;25.40;17.40;;;0.70;41.80;;;;;;10426427;28;20229;-71
2022/12/19 06:20:40;;;;;;;22.80;14.53;;;0.70;41.80;;;;;;10426762;28;20232;-71
2022/12/19 06:25:43;;;;;;;19.57;13.93;;;0.70;42.70;;;;;;10425765;28;20228;-70
2022/12/19 06:30:46;;;;;;;24.57;18.17;;;0.80;42.90;;;;;;10422684;28;20648;-70
2022/12/19 06:35:57;;;;;;;23.93;16.50;;;1.00;42.30;;;;;;10422844;28;20775;-70
2022/12/19 06:46:22;;;;;;;23.03;16.47;;;1.00;41.90;;;;;;10425046;28;20236;-70
2022/12/19 06:51:27;;;;;;;23.13;17.13;;;1.00;41.90;;;;;;10422434;28;20230;-70
2022/12/19 06:56:35;;;;;;;27.23;18.23;;;1.00;41.80;;;;;;10427925;28;20217;-70
2022/12/19 07:01:51;;;;;;;24.00;16.80;;;1.10;41.90;;;;;;10421279;28;20773;-70
2022/12/19 07:06:56;;;;;;;21.20;15.40;;;1.10;41.90;;;;;;10425744;28;20226;-70
2022/12/19 07:11:59;;;;;;;20.67;16.00;;;1.10;41.90;;;;;;10422008;28;20228;-70
2022/12/19 07:17:03;;;;;;;23.30;16.90;;;1.10;41.80;;;;;;10420892;28;20742;-70
2022/12/19 07:22:09;;;;;;;23.30;17.07;;;1.20;41.90;;;;;;10421820;28;20604;-70
2022/12/19 07:27:12;;;;;;;24.67;17.17;;;1.20;41.70;;;;;;10422366;28;20713;-70
2022/12/19 07:32:15;;;;;;;23.07;16.67;;;1.10;41.70;;;;;;10427173;28;20598;-70
2022/12/19 07:37:20;;;;;;;23.73;16.87;;;1.10;41.80;;;;;;10420865;28;20291;-70
2022/12/19 07:42:23;;;;;;;25.57;17.73;;;1.30;42.10;;;;;;10424452;28;21062;-70
2022/12/19 07:47:34;;;;;;;26.30;18.13;;;1.20;42.10;;;;;;10422549;28;20249;-70
2022/12/19 07:52:38;;;;;;;23.00;15.93;;;1.20;42.10;;;;;;10426085;28;20236;-70
2022/12/19 07:57:41;;;;;;;23.00;18.10;;;1.20;42.10;;;;;;10422781;28;20232;-70
2022/12/19 08:02:45;;;;;;;24.93;16.47;;;1.30;42.20;;;;;;10420753;28;20236;-70
2022/12/19 08:07:50;;;;;;;25.97;18.33;;;1.30;42.20;;;;;;10420280;28;20696;-70
2022/12/19 08:12:53;;;;;;;23.67;17.37;;;1.30;42.20;;;;;;10420556;28;20233;-70
2022/12/19 08:17:56;;;;;;;25.10;17.73;;;1.40;42.30;;;;;;10429924;28;20712;-70
2022/12/19 08:23:01;;;;;;;27.23;19.40;;;1.50;42.30;;;;;;10428977;28;20279;-70
2022/12/19 08:28:04;;;;;;;22.47;16.27;;;1.50;42.30;;;;;;10402322;28;20219;-70
2022/12/19 08:33:08;;;;;;;25.17;17.40;;;1.60;42.30;;;;;;10392937;28;20656;-70
2022/12/19 08:38:12;;;;;;;19.27;14.60;;;1.60;42.30;;;;;;10393097;28;20233;-70
2022/12/19 08:43:15;;;;;;;25.47;17.50;;;1.70;43.60;;;;;;10390071;28;20233;-71
2022/12/19 08:48:19;;;;;;;25.37;19.00;;;1.80;43.10;;;;;;10394641;28;20222;-71
2022/12/19 08:53:24;;;;;;;21.60;16.60;;;1.90;42.70;;;;;;10390152;28;20841;-71
2022/12/19 08:58:30;;;;;;;25.23;19.23;;;2.20;42.70;;;;;;10393811;28;20226;-71
2022/12/19 09:03:33;;;;;;;25.00;18.57;;;2.10;42.60;;;;;;10390937;28;20741;-71
2022/12/19 09:08:58;;;;;;;25.17;18.60;;;2.30;42.60;;;;;;10397141;28;20244;-71
2022/12/19 09:14:03;;;;;;;27.27;19.57;;;2.20;42.50;;;;;;10430728;28;20225;-71
2022/12/19 09:19:07;;;;;;;25.10;18.67;;;2.10;42.50;;;;;;10428235;28;20324;-71
2022/12/19 09:24:11;;;;;;;23.80;18.03;;;2.10;42.60;;;;;;10432635;28;20221;-71
2022/12/19 09:29:14;;;;;;;26.97;18.77;;;2.20;42.60;;;;;;10429009;28;20744;-71
2022/12/19 09:34:23;;;;;;;28.07;19.50;;;2.30;42.60;;;;;;10432389;28;20229;-71
2022/12/19 09:39:41;;;;;;;22.83;17.80;;;2.30;42.40;;;;;;10429227;28;20955;-71
2022/12/19 09:44:58;;;;;;;26.30;19.57;;;2.30;42.40;;;;;;10431135;28;20627;-71
2022/12/19 09:50:06;;;;;;;26.83;19.17;;;2.40;42.60;;;;;;10426259;28;20324;-70
2022/12/19 09:55:17;;;;;;;24.23;18.50;;;2.40;42.60;;;;;;10422513;28;20224;-70
2022/12/19 10:00:22;;;;;;;25.27;18.80;;;2.50;42.70;;;;;;10428439;28;20217;-70
2022/12/19 10:05:30;;;;;;;24.93;19.13;;;2.60;42.70;;;;;;10421096;28;20232;-71
2022/12/19 10:11:07;;;;;;;21.20;15.97;;;2.70;42.60;;;;;;10417814;28;21145;-71
2022/12/19 10:16:36;;;;;;;24.20;17.53;;;2.70;42.60;;;;;;10420074;28;20303;-71
2022/12/19 10:21:45;;;;;;;22.97;18.07;;;2.80;42.60;;;;;;10417191;28;20236;-71
2022/12/19 10:27:17;;;;;;;23.87;17.73;;;2.90;42.80;;;;;;10422514;28;20909;-71
2022/12/19 10:32:29;;;;;;;23.73;18.37;;;2.90;42.70;;;;;;10423667;28;20232;-71
2022/12/19 10:37:45;;;;;;;23.60;17.77;;;3.00;42.80;;;;;;10418703;28;20865;-70
2022/12/19 10:42:58;;;;;;;22.70;18.23;;;3.10;42.80;;;;;;10415817;28;20224;-69
2022/12/19 10:48:12;;;;;;;25.33;18.10;;;3.20;42.90;;;;;;10418545;28;20888;-70
2022/12/19 10:53:24;;;;;;;25.13;18.87;;;3.30;42.80;;;;;;10419788;28;20244;-70
2022/12/19 10:58:34;;;;;;;22.60;18.10;;;3.40;42.90;;;;;;10414083;28;20221;-70
2022/12/19 11:03:39;;;;;;;23.10;17.90;;;3.50;42.80;;;;;;10413544;28;20336;-70
2022/12/19 11:08:42;;;;;;;23.60;18.97;;;3.70;43.10;;;;;;10419973;28;20575;-70
2022/12/19 11:13:47;;;;;;;23.00;18.47;;;3.70;42.90;;;;;;10419411;28;20229;-69
2022/12/19 11:19:21;;;;;;;22.80;20.00;;;3.80;42.90;;;;;;10402216;28;20232;-70
2022/12/19 11:24:49;;;;;;;23.77;18.10;;;3.90;42.60;;;;;;10384156;28;20296;-70
2022/12/19 11:30:22;;;;;;;23.40;18.93;;;4.00;42.70;;;;;;10371865;28;20264;-70
2022/12/19 11:35:48;;;;;;;21.97;17.07;;;4.20;42.70;;;;;;10379087;28;20305;-70
2022/12/19 11:40:55;;;;;;;23.87;18.73;;;4.20;42.70;;;;;;10373797;28;20238;-70
2022/12/19 11:46:04;;;;;;;20.77;16.93;;;4.30;42.70;;;;;;10371991;28;20233;-70
2022/12/19 11:51:17;;;;;;;24.10;18.83;;;4.40;42.80;;;;;;10399123;28;20221;-69
2022/12/19 11:56:23;;;;;;;24.90;19.33;;;4.40;42.60;;;;;;10419593;28;20721;-71
2022/12/19 12:02:02;;;;;;;24.53;19.37;;;4.40;42.40;;;;;;10406239;28;20236;-70
2022/12/19 12:07:07;;;;;;;23.70;18.23;;;4.50;42.40;;;;;;10427965;28;20213;-70
2022/12/19 12:12:32;;;;;;;21.43;16.80;;;4.50;42.40;;;;;;10429254;28;20798;-71
2022/12/19 12:18:06;;;;;;;23.70;19.47;;;4.60;42.80;;;;;;10426411;28;20251;-71
2022/12/19 12:23:36;;;;;;;26.40;19.17;;;4.60;42.50;;;;;;10425574;28;20229;-71
2022/12/19 12:29:13;;;;;;;23.23;19.43;;;4.60;43.50;;;;;;10417681;28;20268;-71
2022/12/19 12:34:50;;;;;;;26.63;20.40;;;4.70;42.70;;;;;;10416179;28;21222;-70
2022/12/19 12:40:28;;;;;;;24.43;19.53;;;4.80;42.60;;;;;;10414660;28;20327;-71
2022/12/19 12:45:37;;;;;;;25.33;19.53;;;4.90;42.70;;;;;;10410072;28;20228;-69
2022/12/19 12:50:43;;;;;;;24.50;19.47;;;4.90;42.70;;;;;;10420320;28;20248;-70
2022/12/19 12:55:52;;;;;;;22.07;18.27;;;5.00;43.10;;;;;;10422187;28;20302;-70
2022/12/19 13:01:09;;;;;;;24.47;19.50;;;5.10;42.80;;;;;;10418168;28;20233;-70
2022/12/19 13:06:26;;;;;;;23.07;19.17;;;5.20;42.60;;;;;;10440586;28;20221;-70
2022/12/19 13:17:01;;;;;;;23.90;19.77;;;5.30;42.40;;;;;;10441856;28;20240;-70
2022/12/19 13:22:19;;;;;;;24.07;19.47;;;5.30;42.60;;;;;;10439634;28;20220;-70
2022/12/19 13:27:33;;;;;;;26.10;20.10;;;5.30;42.30;;;;;;10432920;28;20304;-70
2022/12/19 13:33:07;;;;;;;24.37;19.43;;;5.30;42.40;;;;;;10434885;28;20225;-70
2022/12/19 13:38:24;;;;;;;23.80;19.37;;;5.20;42.40;;;;;;10435563;28;20217;-70
2022/12/19 13:43:48;;;;;;;26.17;19.87;;;5.20;42.30;;;;;;10435334;28;20265;-70
2022/12/19 13:48:55;;;;;;;22.87;18.83;;;5.20;42.50;;;;;;10433049;28;20224;-70
2022/12/19 13:54:00;;;;;;;25.10;19.67;;;5.30;42.60;;;;;;10432884;28;20229;-70
2022/12/19 13:59:05;;;;;;;22.03;18.07;;;5.30;42.60;;;;;;10433383;28;20228;-70
2022/12/19 14:04:11;;;;;;;20.73;17.13;;;5.30;42.60;;;;;;10429720;28;20299;-70
2022/12/19 14:09:27;;;;;;;21.03;16.30;;;5.30;42.60;;;;;;10436710;28;20229;-70
2022/12/19 14:20:21;;;;;;;22.13;17.90;;;5.40;42.40;;;;;;10432500;28;20282;-70
2022/12/19 14:25:50;;;;;;;23.20;18.33;;;5.50;42.30;;;;;;10432033;28;20316;-70
2022/12/19 14:31:16;;;;;;;22.17;17.83;;;5.50;42.20;;;;;;10436433;28;20710;-70
2022/12/19 14:36:26;;;;;;;21.73;17.87;;;5.50;42.20;;;;;;10433855;28;20228;-70
2022/12/19 14:47:10;;;;;;;23.10;18.43;;;5.50;42.00;;;;;;10431752;28;20781;-70
2022/12/19 14:52:41;;;;;;;23.90;18.93;;;5.40;42.20;;;;;;10434144;28;20318;-70
2022/12/19 14:58:15;;;;;;;24.13;18.83;;;5.40;42.00;;;;;;10433371;28;20225;-70
2022/12/19 15:03:50;;;;;;;21.93;18.80;;;5.40;42.00;;;;;;10430685;28;20308;-70
2022/12/19 15:09:16;;;;;;;28.53;22.50;;;5.40;41.90;;;;;;10428322;28;20259;-70
2022/12/19 15:14:43;;;;;;;16.93;13.83;;;5.40;41.90;;;;;;10428908;28;20319;-71
2022/12/19 15:20:01;;;;;;;22.03;18.13;;;5.30;44.20;;;;;;10431818;28;20222;-70
2022/12/19 15:25:05;;;;;;;23.03;18.03;;;5.40;43.70;;;;;;10420734;28;20228;-70
2022/12/19 15:30:15;;;;;;;22.87;18.07;;;5.50;42.90;;;;;;10401738;28;20996;-70
2022/12/19 15:35:19;;;;;;;22.80;19.10;;;5.50;42.20;;;;;;10393272;28;20706;-70
2022/12/19 15:40:22;;;;;;;25.27;20.77;;;5.50;42.10;;;;;;10395379;28;20324;-71
2022/12/19 15:45:29;;;;;;;24.87;19.30;;;5.40;42.00;;;;;;10395802;28;20253;-72
2022/12/19 15:50:32;;;;;;;22.83;19.00;;;5.30;42.00;;;;;;10391944;28;20221;-71
2022/12/19 15:55:38;;;;;;;21.93;18.10;;;5.30;42.20;;;;;;10378586;28;20254;-70
2022/12/19 16:00:48;;;;;;;24.90;19.03;;;5.30;43.00;;;;;;10380126;28;20225;-72
2022/12/19 16:05:52;;;;;;;21.33;17.83;;;5.30;42.30;;;;;;10378326;28;20229;-71
2022/12/19 16:10:57;;;;;;;22.97;18.87;;;5.30;42.20;;;;;;10378085;28;20225;-71
2022/12/19 16:16:06;;;;;;;22.13;18.40;;;5.30;42.20;;;;;;10417088;28;20225;-71
2022/12/19 16:21:20;;;;;;;22.33;18.43;;;5.30;42.40;;;;;;10417994;28;20256;-70
2022/12/19 16:26:34;;;;;;;23.63;19.90;;;5.30;42.40;;;;;;10417573;28;20252;-70
2022/12/19 16:31:38;;;;;;;22.40;18.83;;;5.40;42.50;;;;;;10417340;28;20709;-71
2022/12/19 16:36:42;;;;;;;26.70;21.27;;;5.40;42.40;;;;;;10420455;28;20582;-72
2022/12/19 16:41:46;;;;;;;24.03;19.60;;;5.40;42.30;;;;;;10425858;28;20236;-70
2022/12/19 16:46:51;;;;;;;30.70;24.53;;;5.40;43.60;;;;;;10427231;28;20727;-70
2022/12/19 16:51:54;;;;;;;32.70;26.83;;;5.50;43.10;;;;;;10425690;28;20220;-71
2022/12/19 16:56:58;;;;;;;29.70;24.70;;;5.60;42.40;;;;;;10426297;28;20225;-70
2022/12/19 17:02:14;;;;;;;26.97;22.60;;;5.60;42.20;;;;;;10430177;28;20225;-70
2022/12/19 17:07:19;;;;;;;29.73;22.57;;;5.50;41.90;;;;;;10381170;28;20733;-70
2022/12/19 17:12:24;;;;;;;28.13;22.93;;;5.40;41.80;;;;;;10384675;28;20245;-70
2022/12/19 17:17:29;;;;;;;23.50;20.10;;;5.30;41.80;;;;;;10380243;28;20238;-70
2022/12/19 17:22:32;;;;;;;25.60;20.73;;;5.20;41.90;;;;;;10384524;28;20232;-70
2022/12/19 17:27:35;;;;;;;26.27;21.93;;;5.20;42.20;;;;;;10382451;28;20229;-71
2022/12/19 17:32:40;;;;;;;27.97;23.53;;;5.20;42.30;;;;;;10379503;28;20230;-70
2022/12/19 17:37:47;;;;;;;30.20;22.73;;;5.20;42.20;;;;;;10381797;28;20246;-70
2022/12/19 17:42:51;;;;;;;24.13;19.30;;;5.20;42.00;;;;;;10383011;28;20222;-70
2022/12/19 17:47:56;;;;;;;23.17;18.70;;;5.20;42.00;;;;;;10381015;28;20223;-70
2022/12/19 17:53:05;;;;;;;23.13;19.17;;;5.20;41.90;;;;;;10385058;28;20229;-71
2022/12/19 17:58:09;;;;;;;24.17;19.13;;;5.10;42.00;;;;;;10383424;28;20272;-71
2022/12/19 18:03:20;;;;;;;24.17;19.33;;;5.10;41.90;;;;;;10383002;28;20230;-70
2022/12/19 18:08:26;;;;;;;23.80;19.63;;;5.00;41.80;;;;;;10375821;28;20234;-71
2022/12/19 18:13:31;;;;;;;24.40;19.57;;;4.90;41.90;;;;;;10376208;28;20232;-70
2022/12/19 18:18:36;;;;;;;21.80;17.87;;;4.70;42.00;;;;;;10386164;28;21022;-70
2022/12/19 18:23:39;;;;;;;21.27;17.90;;;4.70;42.20;;;;;;10376687;28;20234;-70
2022/12/19 18:28:42;;;;;;;20.67;16.83;;;4.70;42.30;;;;;;10383495;28;20226;-71
2022/12/19 18:33:47;;;;;;;22.13;18.30;;;4.70;42.50;;;;;;10384013;28;20736;-70
2022/12/19 18:38:51;;;;;;;29.57;22.63;;;4.70;42.30;;;;;;10386665;28;20213;-70
2022/12/19 18:43:54;;;;;;;41.10;30.13;;;4.70;42.40;;;;;;10384731;28;20237;-70
2022/12/19 18:48:59;;;;;;;31.43;22.97;;;4.70;42.40;;;;;;10380971;28;20232;-71
2022/12/19 18:54:05;;;;;;;26.17;20.30;;;4.70;42.50;;;;;;10420591;28;20716;-70
2022/12/19 18:59:09;;;;;;;22.83;18.73;;;4.70;42.40;;;;;;10423039;28;20233;-71
2022/12/19 19:04:16;;;;;;;27.13;22.93;;;4.70;42.30;;;;;;10417193;28;20237;-70
2022/12/19 19:09:21;;;;;;;41.10;31.13;;;4.70;42.30;;;;;;10417334;28;20224;-71
2022/12/19 19:14:24;;;;;;;25.37;20.50;;;4.80;42.20;;;;;;10419580;28;20728;-71
2022/12/19 19:19:29;;;;;;;24.27;20.73;;;4.80;42.10;;;;;;10420326;28;20890;-71
2022/12/19 19:24:32;;;;;;;23.23;18.97;;;4.80;42.10;;;;;;10421724;28;20226;-71
2022/12/19 19:29:35;;;;;;;22.53;18.80;;;4.80;41.90;;;;;;10420916;28;20221;-71
2022/12/19 19:34:42;;;;;;;20.83;17.23;;;4.70;41.70;;;;;;10420651;28;20302;-71
2022/12/19 19:39:46;;;;;;;22.57;17.93;;;4.60;41.70;;;;;;10419219;28;20240;-71
2022/12/19 19:44:49;;;;;;;21.07;17.90;;;4.60;41.90;;;;;;10420891;28;20232;-71
2022/12/19 19:49:55;;;;;;;22.13;17.67;;;4.50;42.10;;;;;;10418901;28;20686;-69
2022/12/19 19:54:58;;;;;;;23.03;19.27;;;4.50;42.30;;;;;;10414535;28;20578;-69
2022/12/19 20:00:03;;;;;;;23.67;19.07;;;4.50;42.30;;;;;;10423498;28;20278;-69
2022/12/19 20:05:09;;;;;;;21.97;18.53;;;4.50;42.10;;;;;;10425273;28;20229;-71
2022/12/19 20:10:12;;;;;;;19.87;16.27;;;4.50;41.90;;;;;;10388934;28;20226;-70
2022/12/19 20:15:16;;;;;;;24.07;19.03;;;4.60;41.90;;;;;;10383932;28;20342;-69
2022/12/19 20:20:20;;;;;;;21.37;17.73;;;4.60;41.90;;;;;;10388198;28;20237;-71
2022/12/19 20:25:23;;;;;;;27.13;21.23;;;4.60;42.50;;;;;;10384715;28;20281;-69
2022/12/19 20:30:27;;;;;;;25.00;19.77;;;4.50;41.70;;;;;;10397308;28;20698;-70
2022/12/19 20:35:31;;;;;;;24.57;20.13;;;4.50;41.70;;;;;;10380822;28;20738;-69
2022/12/19 20:40:34;;;;;;;25.90;19.00;;;4.50;41.50;;;;;;10390585;28;21030;-70
2022/12/19 20:45:38;;;;;;;25.40;20.27;;;4.50;41.30;;;;;;10391819;28;20229;-71
2022/12/19 20:50:44;;;;;;;22.17;18.10;;;4.50;41.20;;;;;;10386327;28;20226;-70
2022/12/19 20:55:52;;;;;;;19.43;16.40;;;4.40;41.30;;;;;;10383896;28;20229;-69
2022/12/19 21:01:05;;;;;;;20.53;17.30;;;4.30;41.30;;;;;;10386453;28;20237;-70
2022/12/19 21:06:12;;;;;;;22.60;17.90;;;4.30;41.40;;;;;;10429330;28;20225;-70
2022/12/19 21:11:15;;;;;;;20.63;17.00;;;4.30;41.40;;;;;;10422253;28;20225;-70
2022/12/19 21:16:21;;;;;;;19.97;16.60;;;4.30;41.60;;;;;;10424889;28;20225;-70
2022/12/19 21:21:27;;;;;;;17.47;15.10;;;4.40;41.70;;;;;;10413291;28;20734;-70
2022/12/19 21:26:31;;;;;;;20.47;17.43;;;4.30;41.50;;;;;;10387742;28;20236;-71
2022/12/19 21:31:34;;;;;;;20.57;16.63;;;4.20;41.60;;;;;;10387213;28;20230;-71
2022/12/19 21:36:43;;;;;;;21.90;17.53;;;4.20;41.90;;;;;;10381619;28;20237;-70
2022/12/19 21:41:46;;;;;;;19.67;16.60;;;4.20;41.80;;;;;;10388163;28;20234;-70
2022/12/19 21:46:49;;;;;;;20.30;16.73;;;4.20;41.90;;;;;;10382998;28;20240;-71
2022/12/19 21:51:54;;;;;;;21.40;17.70;;;4.20;41.90;;;;;;10381743;28;20226;-70
2022/12/19 21:56:57;;;;;;;23.37;17.70;;;4.20;41.90;;;;;;10378210;28;20221;-70
2022/12/19 22:02:01;;;;;;;22.83;18.13;;;4.20;41.90;;;;;;10382106;28;20230;-70
2022/12/19 22:07:06;;;;;;;24.47;20.00;;;4.10;42.00;;;;;;10378680;28;20277;-71
2022/12/19 22:12:12;;;;;;;23.30;19.97;;;4.10;42.00;;;;;;10382366;28;20233;-70
2022/12/19 22:17:15;;;;;;;23.23;18.63;;;4.20;42.10;;;;;;10383948;28;20224;-70
2022/12/19 22:22:20;;;;;;;21.67;17.50;;;4.20;42.10;;;;;;10379199;28;20280;-71
2022/12/19 22:27:23;;;;;;;22.10;18.17;;;4.20;42.10;;;;;;10376508;28;20600;-70
2022/12/19 22:32:27;;;;;;;22.83;17.80;;;4.20;42.10;;;;;;10378790;28;20604;-70
2022/12/19 22:37:31;;;;;;;22.33;18.10;;;4.10;42.00;;;;;;10379216;28;21230;-70
2022/12/19 22:42:35;;;;;;;19.20;16.97;;;4.10;41.90;;;;;;10379867;28;20258;-71
2022/12/19 22:47:41;;;;;;;21.47;17.50;;;4.10;41.90;;;;;;10383270;28;20237;-70
2022/12/19 22:52:45;;;;;;;19.97;16.60;;;4.10;41.90;;;;;;10373647;28;20241;-70
2022/12/19 22:57:48;;;;;;;19.87;15.73;;;4.10;41.80;;;;;;10382412;28;20248;-71
2022/12/19 23:02:52;;;;;;;20.47;17.47;;;4.10;41.80;;;;;;10380330;28;20233;-71
2022/12/19 23:07:57;;;;;;;21.50;17.90;;;4.00;41.90;;;;;;10386698;28;20323;-70
2022/12/19 23:13:00;;;;;;;20.67;17.30;;;4.00;41.90;;;;;;10380934;28;20222;-71
2022/12/19 23:18:03;;;;;;;19.87;16.60;;;4.10;42.00;;;;;;10426173;28;20213;-70
2022/12/19 23:23:08;;;;;;;22.63;18.30;;;4.10;42.00;;;;;;10425380;28;20221;-70
2022/12/19 23:28:11;;;;;;;23.57;19.03;;;4.10;42.00;;;;;;10426859;28;20225;-70
2022/12/19 23:33:14;;;;;;;22.13;17.97;;;4.10;42.00;;;;;;10424342;28;20225;-71
2022/12/19 23:38:19;;;;;;;23.43;18.50;;;4.10;42.00;;;;;;10426945;28;20240;-70
2022/12/19 23:43:22;;;;;;;20.73;17.30;;;4.10;42.00;;;;;;10424500;28;20248;-70
2022/12/19 23:48:27;;;;;;;22.10;17.87;;;4.10;42.00;;;;;;10422283;28;20257;-71
2022/12/19 23:53:44;;;;;;;24.17;19.30;;;4.20;42.10;;;;;;10414518;28;20248;-71
2022/12/19 23:58:47;;;;;;;22.37;17.77;;;4.20;42.80;;;;;;10420201;28;20612;-70
